Fife, Washington
Current Conditions -  °F | °C
As of 5:15 AM on Friday 28 Nov 2014 (Local Time) from KTCM Reporting Station
Few Clouds Few Clouds  
Wind Chill: 54°   Ceiling: Unl
Heat Index: 54°   Visibility: 10mi
Dew Point: 50°   Wind: 16mph
Humidity: 88%   Direction: 190°S
Pressure: 29.59"   Gusts: NA
Location:  47.2401°N, 122.358°W
Report Text: KTCM 281315Z AUTO 19014KT 10SM FEW200 12/10 A2959 RMK AO2 RAB1305E1315 $
Loading
Personal Weather Stations






























Interactive Weather Map New forecast layout! Learn more

10-Day Weather Forecast

Advertisements
Track Severe Weather on mobile